KONL/ONL METAR and TAF weather

Enter ICAO airport designator
Station Type Date Time Source
KONL METAR 2022/08/16 19:15 UTC NOAA

KONL 161915Z AUTO 11009KT 10SM SCT021 OVC029 21/15 A3016 RMK AO2 T02110152


Station Type Date Time Source
KONL Decoded METAR 2022/08/16 19:15 UTC NOAA

O'Neill / Baker Field, NE, United States (KONL) 42-28N 098-41W
Aug 16, 2022 - 03:15 PM EDT / 2022.08.16 1915 UTC
Wind: from the ESE (110 degrees) at 10 MPH (9 KT):0
Visibility: 10 mile(s):0
Sky conditions: overcast
Temperature: 70.0 F (21.1 C)
Dew Point: 59.4 F (15.2 C)
Relative Humidity: 69%
Pressure (altimeter): 30.16 in. Hg (1021 hPa)
ob: KONL 161915Z AUTO 11009KT 10SM SCT021 OVC029 21/15 A3016 RMK AO2 T02110152
cycle: 19

Station Type Date Time Source
KONL TAF UTC NOAA

Error!

Example: see airport list